sensor_id;sensor_type;location;lat;lon;timestamp;temperature;humidity
11540;DHT22;5826;54.756;9.192;2023-04-24T00:01:12;13.10;99.90
11540;DHT22;5826;54.756;9.192;2023-04-24T00:03:38;13.10;99.90
11540;DHT22;5826;54.756;9.192;2023-04-24T00:06:04;13.10;99.90
11540;DHT22;5826;54.756;9.192;2023-04-24T00:08:32;13.10;99.90
11540;DHT22;5826;54.756;9.192;2023-04-24T00:10:57;13.10;99.90
11540;DHT22;5826;54.756;9.192;2023-04-24T00:13:23;13.10;99.90
11540;DHT22;5826;54.756;9.192;2023-04-24T00:15:48;13.00;99.90
11540;DHT22;5826;54.756;9.192;2023-04-24T00:18:14;13.00;99.90
11540;DHT22;5826;54.756;9.192;2023-04-24T00:20:39;13.00;99.90
11540;DHT22;5826;54.756;9.192;2023-04-24T00:23:05;13.00;99.90
11540;DHT22;5826;54.756;9.192;2023-04-24T00:25:31;13.00;99.90
11540;DHT22;5826;54.756;9.192;2023-04-24T00:27:56;13.00;99.90
11540;DHT22;5826;54.756;9.192;2023-04-24T00:30:22;13.00;99.90
11540;DHT22;5826;54.756;9.192;2023-04-24T00:32:48;13.00;99.90
11540;DHT22;5826;54.756;9.192;2023-04-24T00:35:13;13.00;99.90
11540;DHT22;5826;54.756;9.192;2023-04-24T00:37:40;12.90;99.90
11540;DHT22;5826;54.756;9.192;2023-04-24T00:40:06;12.90;99.90
11540;DHT22;5826;54.756;9.192;2023-04-24T00:42:32;12.90;99.90
11540;DHT22;5826;54.756;9.192;2023-04-24T00:44:58;12.90;99.90
11540;DHT22;5826;54.756;9.192;2023-04-24T00:47:25;12.90;99.90
11540;DHT22;5826;54.756;9.192;2023-04-24T00:49:50;12.90;99.90
11540;DHT22;5826;54.756;9.192;2023-04-24T00:52:16;12.90;99.90
11540;DHT22;5826;54.756;9.192;2023-04-24T00:54:43;12.90;99.90
11540;DHT22;5826;54.756;9.192;2023-04-24T00:57:10;12.90;99.90
11540;DHT22;5826;54.756;9.192;2023-04-24T00:59:36;12.90;99.90
11540;DHT22;5826;54.756;9.192;2023-04-24T01:02:02;12.90;99.90
11540;DHT22;5826;54.756;9.192;2023-04-24T01:04:28;12.80;99.90
11540;DHT22;5826;54.756;9.192;2023-04-24T01:06:54;12.80;99.90
11540;DHT22;5826;54.756;9.192;2023-04-24T01:09:22;12.80;99.90
11540;DHT22;5826;54.756;9.192;2023-04-24T01:11:48;12.80;99.90
11540;DHT22;5826;54.756;9.192;2023-04-24T01:14:14;12.80;99.90
11540;DHT22;5826;54.756;9.192;2023-04-24T01:16:40;12.80;99.90
11540;DHT22;5826;54.756;9.192;2023-04-24T01:19:07;12.80;99.90
11540;DHT22;5826;54.756;9.192;2023-04-24T01:21:36;12.80;99.90
11540;DHT22;5826;54.756;9.192;2023-04-24T01:24:02;12.80;99.90
11540;DHT22;5826;54.756;9.192;2023-04-24T01:26:28;12.90;99.90
11540;DHT22;5826;54.756;9.192;2023-04-24T01:28:53;12.90;99.90
11540;DHT22;5826;54.756;9.192;2023-04-24T01:31:20;12.90;99.90
11540;DHT22;5826;54.756;9.192;2023-04-24T01:33:45;12.90;99.90
11540;DHT22;5826;54.756;9.192;2023-04-24T01:36:11;12.90;99.90
11540;DHT22;5826;54.756;9.192;2023-04-24T01:38:37;12.90;99.90
11540;DHT22;5826;54.756;9.192;2023-04-24T01:41:03;12.90;99.90
11540;DHT22;5826;54.756;9.192;2023-04-24T01:43:29;12.90;99.90
11540;DHT22;5826;54.756;9.192;2023-04-24T01:45:54;12.90;99.90
11540;DHT22;5826;54.756;9.192;2023-04-24T01:48:20;12.90;99.90
11540;DHT22;5826;54.756;9.192;2023-04-24T01:50:45;12.90;99.90
11540;DHT22;5826;54.756;9.192;2023-04-24T01:53:11;12.90;99.90
11540;DHT22;5826;54.756;9.192;2023-04-24T01:55:37;12.90;99.90
11540;DHT22;5826;54.756;9.192;2023-04-24T01:58:03;12.90;99.90
11540;DHT22;5826;54.756;9.192;2023-04-24T02:00:28;12.90;99.90
11540;DHT22;5826;54.756;9.192;2023-04-24T02:02:54;13.40;99.90
11540;DHT22;5826;54.756;9.192;2023-04-24T02:05:19;12.90;99.90
11540;DHT22;5826;54.756;9.192;2023-04-24T02:07:45;12.90;99.90
11540;DHT22;5826;54.756;9.192;2023-04-24T02:10:10;12.90;99.90
11540;DHT22;5826;54.756;9.192;2023-04-24T02:12:36;12.90;99.90
11540;DHT22;5826;54.756;9.192;2023-04-24T02:15:02;12.90;99.90
11540;DHT22;5826;54.756;9.192;2023-04-24T02:17:28;12.90;99.90
11540;DHT22;5826;54.756;9.192;2023-04-24T02:19:53;12.90;99.90
11540;DHT22;5826;54.756;9.192;2023-04-24T02:22:19;12.90;99.90
11540;DHT22;5826;54.756;9.192;2023-04-24T02:24:44;12.90;99.90
11540;DHT22;5826;54.756;9.192;2023-04-24T02:27:10;12.90;99.90
11540;DHT22;5826;54.756;9.192;2023-04-24T02:29:36;12.90;99.90
11540;DHT22;5826;54.756;9.192;2023-04-24T02:32:02;12.90;99.90
11540;DHT22;5826;54.756;9.192;2023-04-24T02:34:27;12.90;99.90
11540;DHT22;5826;54.756;9.192;2023-04-24T02:36:53;12.80;99.90
11540;DHT22;5826;54.756;9.192;2023-04-24T02:39:22;12.80;99.90
11540;DHT22;5826;54.756;9.192;2023-04-24T02:41:47;12.80;99.90
11540;DHT22;5826;54.756;9.192;2023-04-24T02:44:13;12.80;99.90
11540;DHT22;5826;54.756;9.192;2023-04-24T02:46:38;12.80;99.90
11540;DHT22;5826;54.756;9.192;2023-04-24T02:49:06;12.80;99.90
11540;DHT22;5826;54.756;9.192;2023-04-24T02:51:31;12.80;99.90
11540;DHT22;5826;54.756;9.192;2023-04-24T02:53:57;12.80;99.90
11540;DHT22;5826;54.756;9.192;2023-04-24T02:56:22;12.80;99.90
11540;DHT22;5826;54.756;9.192;2023-04-24T02:58:48;12.80;99.90
11540;DHT22;5826;54.756;9.192;2023-04-24T03:01:13;12.80;99.90
11540;DHT22;5826;54.756;9.192;2023-04-24T03:03:39;12.80;99.90
11540;DHT22;5826;54.756;9.192;2023-04-24T03:06:05;12.80;99.90
11540;DHT22;5826;54.756;9.192;2023-04-24T03:08:31;12.80;99.90
11540;DHT22;5826;54.756;9.192;2023-04-24T03:10:57;12.80;99.90
11540;DHT22;5826;54.756;9.192;2023-04-24T03:13:23;12.80;99.90
11540;DHT22;5826;54.756;9.192;2023-04-24T03:15:48;12.80;99.90
11540;DHT22;5826;54.756;9.192;2023-04-24T03:18:14;12.80;99.90
11540;DHT22;5826;54.756;9.192;2023-04-24T03:20:39;12.80;99.90
11540;DHT22;5826;54.756;9.192;2023-04-24T03:23:05;12.90;99.90
11540;DHT22;5826;54.756;9.192;2023-04-24T03:25:30;12.90;99.90
11540;DHT22;5826;54.756;9.192;2023-04-24T03:27:56;12.90;99.90
11540;DHT22;5826;54.756;9.192;2023-04-24T03:30:21;12.90;99.90
11540;DHT22;5826;54.756;9.192;2023-04-24T03:32:47;12.90;99.90
11540;DHT22;5826;54.756;9.192;2023-04-24T03:35:12;12.90;99.90
11540;DHT22;5826;54.756;9.192;2023-04-24T03:37:38;13.00;99.90
11540;DHT22;5826;54.756;9.192;2023-04-24T03:40:04;13.00;99.90
11540;DHT22;5826;54.756;9.192;2023-04-24T03:42:31;13.00;99.90
11540;DHT22;5826;54.756;9.192;2023-04-24T03:44:56;12.90;99.90
11540;DHT22;5826;54.756;9.192;2023-04-24T03:47:22;12.90;99.90
11540;DHT22;5826;54.756;9.192;2023-04-24T03:49:47;13.00;99.90
11540;DHT22;5826;54.756;9.192;2023-04-24T03:52:13;13.00;99.90
11540;DHT22;5826;54.756;9.192;2023-04-24T03:54:38;13.00;99.90
11540;DHT22;5826;54.756;9.192;2023-04-24T03:57:04;12.90;99.90
11540;DHT22;5826;54.756;9.192;2023-04-24T03:59:30;12.90;99.90
11540;DHT22;5826;54.756;9.192;2023-04-24T04:01:56;12.90;99.90
11540;DHT22;5826;54.756;9.192;2023-04-24T04:04:21;12.90;99.90
11540;DHT22;5826;54.756;9.192;2023-04-24T04:06:46;12.90;99.90
11540;DHT22;5826;54.756;9.192;2023-04-24T04:09:12;12.90;99.90
11540;DHT22;5826;54.756;9.192;2023-04-24T04:11:38;12.90;99.90
11540;DHT22;5826;54.756;9.192;2023-04-24T04:14:03;12.90;99.90
11540;DHT22;5826;54.756;9.192;2023-04-24T04:16:29;12.90;99.90
11540;DHT22;5826;54.756;9.192;2023-04-24T04:18:55;12.90;99.90
11540;DHT22;5826;54.756;9.192;2023-04-24T04:21:21;12.90;99.90
11540;DHT22;5826;54.756;9.192;2023-04-24T04:23:46;12.80;99.90
11540;DHT22;5826;54.756;9.192;2023-04-24T04:26:12;12.80;99.90
11540;DHT22;5826;54.756;9.192;2023-04-24T04:28:40;12.70;99.90
11540;DHT22;5826;54.756;9.192;2023-04-24T04:31:06;12.70;99.90
11540;DHT22;5826;54.756;9.192;2023-04-24T04:33:33;12.60;99.90
11540;DHT22;5826;54.756;9.192;2023-04-24T04:35:58;12.60;99.90
11540;DHT22;5826;54.756;9.192;2023-04-24T04:38:25;12.60;99.90
11540;DHT22;5826;54.756;9.192;2023-04-24T04:40:55;12.50;99.90
11540;DHT22;5826;54.756;9.192;2023-04-24T04:43:23;12.50;99.90
11540;DHT22;5826;54.756;9.192;2023-04-24T04:45:49;12.50;99.90
11540;DHT22;5826;54.756;9.192;2023-04-24T04:48:16;12.50;99.90
11540;DHT22;5826;54.756;9.192;2023-04-24T04:50:42;12.40;99.90
11540;DHT22;5826;54.756;9.192;2023-04-24T04:53:08;12.30;99.90
11540;DHT22;5826;54.756;9.192;2023-04-24T04:55:33;12.30;99.90
11540;DHT22;5826;54.756;9.192;2023-04-24T04:58:00;12.30;99.90
11540;DHT22;5826;54.756;9.192;2023-04-24T05:00:26;12.30;99.90
11540;DHT22;5826;54.756;9.192;2023-04-24T05:02:52;12.20;99.90
11540;DHT22;5826;54.756;9.192;2023-04-24T05:05:18;12.30;99.90
11540;DHT22;5826;54.756;9.192;2023-04-24T05:07:44;12.30;99.90
11540;DHT22;5826;54.756;9.192;2023-04-24T05:10:10;12.20;99.90
11540;DHT22;5826;54.756;9.192;2023-04-24T05:12:36;12.20;99.90
11540;DHT22;5826;54.756;9.192;2023-04-24T05:15:02;12.20;99.90
11540;DHT22;5826;54.756;9.192;2023-04-24T05:17:28;12.10;99.90
11540;DHT22;5826;54.756;9.192;2023-04-24T05:19:53;12.10;99.90
11540;DHT22;5826;54.756;9.192;2023-04-24T05:22:19;12.10;99.90
11540;DHT22;5826;54.756;9.192;2023-04-24T05:24:46;12.10;99.90
11540;DHT22;5826;54.756;9.192;2023-04-24T05:27:12;12.10;99.90
11540;DHT22;5826;54.756;9.192;2023-04-24T05:29:38;12.00;99.90
11540;DHT22;5826;54.756;9.192;2023-04-24T05:32:03;12.00;99.90
11540;DHT22;5826;54.756;9.192;2023-04-24T05:34:29;11.90;99.90
11540;DHT22;5826;54.756;9.192;2023-04-24T05:36:54;11.90;99.90
11540;DHT22;5826;54.756;9.192;2023-04-24T05:39:20;11.80;99.90
11540;DHT22;5826;54.756;9.192;2023-04-24T05:41:45;11.80;99.90
11540;DHT22;5826;54.756;9.192;2023-04-24T05:44:11;11.80;99.90
11540;DHT22;5826;54.756;9.192;2023-04-24T05:46:36;11.70;99.90
11540;DHT22;5826;54.756;9.192;2023-04-24T05:49:02;11.70;99.90
11540;DHT22;5826;54.756;9.192;2023-04-24T05:51:28;11.70;99.90
11540;DHT22;5826;54.756;9.192;2023-04-24T05:53:53;11.70;99.90
11540;DHT22;5826;54.756;9.192;2023-04-24T05:56:19;11.80;99.90
11540;DHT22;5826;54.756;9.192;2023-04-24T05:58:46;11.80;99.90
11540;DHT22;5826;54.756;9.192;2023-04-24T06:01:12;11.80;99.90
11540;DHT22;5826;54.756;9.192;2023-04-24T06:03:38;11.80;99.90
11540;DHT22;5826;54.756;9.192;2023-04-24T06:06:05;11.80;99.90
11540;DHT22;5826;54.756;9.192;2023-04-24T06:08:31;11.70;99.90
11540;DHT22;5826;54.756;9.192;2023-04-24T06:10:56;11.70;99.90
11540;DHT22;5826;54.756;9.192;2023-04-24T06:13:22;11.70;99.90
11540;DHT22;5826;54.756;9.192;2023-04-24T06:15:47;11.70;99.90
11540;DHT22;5826;54.756;9.192;2023-04-24T06:18:13;11.80;99.90
11540;DHT22;5826;54.756;9.192;2023-04-24T06:20:39;11.80;99.90
11540;DHT22;5826;54.756;9.192;2023-04-24T06:23:05;11.80;99.90
11540;DHT22;5826;54.756;9.192;2023-04-24T06:25:30;11.80;99.90
11540;DHT22;5826;54.756;9.192;2023-04-24T06:27:56;11.90;99.90
11540;DHT22;5826;54.756;9.192;2023-04-24T06:30:22;11.90;99.90
11540;DHT22;5826;54.756;9.192;2023-04-24T06:32:48;11.90;99.90
11540;DHT22;5826;54.756;9.192;2023-04-24T06:35:13;11.90;99.90
11540;DHT22;5826;54.756;9.192;2023-04-24T06:37:40;11.90;99.90
11540;DHT22;5826;54.756;9.192;2023-04-24T06:40:06;11.90;99.90
11540;DHT22;5826;54.756;9.192;2023-04-24T06:42:32;11.80;99.90
11540;DHT22;5826;54.756;9.192;2023-04-24T06:44:58;11.80;99.90
11540;DHT22;5826;54.756;9.192;2023-04-24T06:47:23;11.80;99.90
11540;DHT22;5826;54.756;9.192;2023-04-24T06:49:49;11.80;99.90
11540;DHT22;5826;54.756;9.192;2023-04-24T06:52:16;11.70;99.90
11540;DHT22;5826;54.756;9.192;2023-04-24T06:54:42;11.70;99.90
11540;DHT22;5826;54.756;9.192;2023-04-24T06:57:08;11.60;99.90
11540;DHT22;5826;54.756;9.192;2023-04-24T06:59:33;11.60;99.90
11540;DHT22;5826;54.756;9.192;2023-04-24T07:01:59;11.60;99.90
11540;DHT22;5826;54.756;9.192;2023-04-24T07:04:24;11.80;99.90
11540;DHT22;5826;54.756;9.192;2023-04-24T07:06:50;11.60;99.90
11540;DHT22;5826;54.756;9.192;2023-04-24T07:09:16;11.70;99.90
11540;DHT22;5826;54.756;9.192;2023-04-24T07:11:44;11.70;99.90
11540;DHT22;5826;54.756;9.192;2023-04-24T07:14:10;11.70;99.90
11540;DHT22;5826;54.756;9.192;2023-04-24T07:16:35;11.80;99.90
11540;DHT22;5826;54.756;9.192;2023-04-24T07:19:01;11.90;99.90
11540;DHT22;5826;54.756;9.192;2023-04-24T07:21:26;12.00;99.90
11540;DHT22;5826;54.756;9.192;2023-04-24T07:23:52;12.10;99.90
11540;DHT22;5826;54.756;9.192;2023-04-24T07:26:18;12.10;99.90
11540;DHT22;5826;54.756;9.192;2023-04-24T07:28:43;12.10;99.90
11540;DHT22;5826;54.756;9.192;2023-04-24T07:31:10;12.10;99.90
11540;DHT22;5826;54.756;9.192;2023-04-24T07:33:36;12.10;99.90
11540;DHT22;5826;54.756;9.192;2023-04-24T07:36:01;12.10;99.90
11540;DHT22;5826;54.756;9.192;2023-04-24T07:38:29;12.10;99.90
11540;DHT22;5826;54.756;9.192;2023-04-24T07:40:55;12.20;99.90
11540;DHT22;5826;54.756;9.192;2023-04-24T07:43:21;12.20;99.90
11540;DHT22;5826;54.756;9.192;2023-04-24T07:45:47;12.20;99.90
11540;DHT22;5826;54.756;9.192;2023-04-24T07:48:12;12.20;99.90
11540;DHT22;5826;54.756;9.192;2023-04-24T07:50:41;12.20;99.90
11540;DHT22;5826;54.756;9.192;2023-04-24T07:53:07;12.10;99.90
11540;DHT22;5826;54.756;9.192;2023-04-24T07:55:32;11.90;99.90
11540;DHT22;5826;54.756;9.192;2023-04-24T07:57:58;11.90;99.90
11540;DHT22;5826;54.756;9.192;2023-04-24T08:00:23;11.90;99.90
11540;DHT22;5826;54.756;9.192;2023-04-24T08:02:49;11.90;99.90
11540;DHT22;5826;54.756;9.192;2023-04-24T08:05:14;11.90;99.90
11540;DHT22;5826;54.756;9.192;2023-04-24T08:07:40;11.80;99.90
11540;DHT22;5826;54.756;9.192;2023-04-24T08:10:09;11.80;99.90
11540;DHT22;5826;54.756;9.192;2023-04-24T08:12:36;11.80;99.90
11540;DHT22;5826;54.756;9.192;2023-04-24T08:15:02;11.70;99.90
11540;DHT22;5826;54.756;9.192;2023-04-24T08:17:27;11.70;99.90
11540;DHT22;5826;54.756;9.192;2023-04-24T08:19:53;11.70;99.90
11540;DHT22;5826;54.756;9.192;2023-04-24T08:22:26;11.70;99.90
11540;DHT22;5826;54.756;9.192;2023-04-24T08:24:52;11.70;99.90
11540;DHT22;5826;54.756;9.192;2023-04-24T08:27:18;11.70;99.90
11540;DHT22;5826;54.756;9.192;2023-04-24T08:29:43;11.60;99.90
11540;DHT22;5826;54.756;9.192;2023-04-24T08:32:09;11.60;99.90
11540;DHT22;5826;54.756;9.192;2023-04-24T08:34:34;11.60;99.90
11540;DHT22;5826;54.756;9.192;2023-04-24T08:37:00;11.60;99.90
11540;DHT22;5826;54.756;9.192;2023-04-24T08:39:25;11.60;99.90
11540;DHT22;5826;54.756;9.192;2023-04-24T08:41:52;11.60;99.90
11540;DHT22;5826;54.756;9.192;2023-04-24T08:44:19;11.60;99.90
11540;DHT22;5826;54.756;9.192;2023-04-24T08:46:45;11.60;99.90
11540;DHT22;5826;54.756;9.192;2023-04-24T08:49:13;11.70;99.90
11540;DHT22;5826;54.756;9.192;2023-04-24T08:51:41;11.60;99.90
11540;DHT22;5826;54.756;9.192;2023-04-24T08:54:07;11.60;99.90
11540;DHT22;5826;54.756;9.192;2023-04-24T08:56:34;11.60;99.90
11540;DHT22;5826;54.756;9.192;2023-04-24T08:59:05;11.70;99.90
11540;DHT22;5826;54.756;9.192;2023-04-24T09:01:32;11.70;99.90
11540;DHT22;5826;54.756;9.192;2023-04-24T09:04:01;11.70;99.90
11540;DHT22;5826;54.756;9.192;2023-04-24T09:06:27;11.80;99.90
11540;DHT22;5826;54.756;9.192;2023-04-24T09:08:54;11.90;99.90
11540;DHT22;5826;54.756;9.192;2023-04-24T09:11:19;11.80;99.90
11540;DHT22;5826;54.756;9.192;2023-04-24T09:13:45;11.80;99.90
11540;DHT22;5826;54.756;9.192;2023-04-24T09:16:11;11.90;99.90
11540;DHT22;5826;54.756;9.192;2023-04-24T09:18:37;11.90;99.90
11540;DHT22;5826;54.756;9.192;2023-04-24T09:21:06;11.90;99.90
11540;DHT22;5826;54.756;9.192;2023-04-24T09:23:32;12.00;99.90
11540;DHT22;5826;54.756;9.192;2023-04-24T09:26:00;12.00;99.90
11540;DHT22;5826;54.756;9.192;2023-04-24T09:28:35;11.90;99.90
11540;DHT22;5826;54.756;9.192;2023-04-24T09:31:06;11.90;99.90
11540;DHT22;5826;54.756;9.192;2023-04-24T09:33:32;11.80;99.90
11540;DHT22;5826;54.756;9.192;2023-04-24T09:35:58;11.80;99.90
11540;DHT22;5826;54.756;9.192;2023-04-24T09:38:36;11.80;99.90
11540;DHT22;5826;54.756;9.192;2023-04-24T09:41:04;11.80;99.90
11540;DHT22;5826;54.756;9.192;2023-04-24T09:43:30;11.70;99.90
11540;DHT22;5826;54.756;9.192;2023-04-24T09:45:57;11.70;99.90
11540;DHT22;5826;54.756;9.192;2023-04-24T09:48:32;11.60;99.90
11540;DHT22;5826;54.756;9.192;2023-04-24T09:50:59;11.60;99.90
11540;DHT22;5826;54.756;9.192;2023-04-24T09:53:26;11.70;99.90
11540;DHT22;5826;54.756;9.192;2023-04-24T09:55:52;11.70;99.90
11540;DHT22;5826;54.756;9.192;2023-04-24T09:58:25;11.70;99.90
11540;DHT22;5826;54.756;9.192;2023-04-24T10:00:55;11.70;99.90
11540;DHT22;5826;54.756;9.192;2023-04-24T10:03:24;11.70;99.90
11540;DHT22;5826;54.756;9.192;2023-04-24T10:05:51;11.60;99.90
11540;DHT22;5826;54.756;9.192;2023-04-24T10:08:17;11.70;99.90
11540;DHT22;5826;54.756;9.192;2023-04-24T10:10:45;11.70;99.90
11540;DHT22;5826;54.756;9.192;2023-04-24T10:13:12;11.70;99.90
11540;DHT22;5826;54.756;9.192;2023-04-24T10:15:39;11.70;99.90
11540;DHT22;5826;54.756;9.192;2023-04-24T10:18:06;11.70;99.90
11540;DHT22;5826;54.756;9.192;2023-04-24T10:20:33;12.10;99.90
11540;DHT22;5826;54.756;9.192;2023-04-24T10:22:59;11.70;99.90
11540;DHT22;5826;54.756;9.192;2023-04-24T10:25:27;11.70;99.90
11540;DHT22;5826;54.756;9.192;2023-04-24T10:27:54;11.70;99.90
11540;DHT22;5826;54.756;9.192;2023-04-24T10:30:28;11.70;99.90
11540;DHT22;5826;54.756;9.192;2023-04-24T10:32:54;11.70;99.90
11540;DHT22;5826;54.756;9.192;2023-04-24T10:35:20;11.70;99.90
11540;DHT22;5826;54.756;9.192;2023-04-24T10:37:56;11.70;99.90
11540;DHT22;5826;54.756;9.192;2023-04-24T10:40:27;11.80;99.90
11540;DHT22;5826;54.756;9.192;2023-04-24T10:42:56;11.80;99.90
11540;DHT22;5826;54.756;9.192;2023-04-24T10:45:23;11.90;99.90
11540;DHT22;5826;54.756;9.192;2023-04-24T10:48:08;12.10;99.90
11540;DHT22;5826;54.756;9.192;2023-04-24T10:50:52;12.00;99.90
11540;DHT22;5826;54.756;9.192;2023-04-24T10:53:19;12.00;99.90
11540;DHT22;5826;54.756;9.192;2023-04-24T10:55:47;12.00;99.90
11540;DHT22;5826;54.756;9.192;2023-04-24T10:58:13;12.10;99.90
11540;DHT22;5826;54.756;9.192;2023-04-24T11:00:41;12.10;99.90
11540;DHT22;5826;54.756;9.192;2023-04-24T11:03:27;12.10;99.90
11540;DHT22;5826;54.756;9.192;2023-04-24T11:08:24;12.30;99.90
11540;DHT22;5826;54.756;9.192;2023-04-24T11:13:23;12.30;99.90
11540;DHT22;5826;54.756;9.192;2023-04-24T11:16:12;12.30;99.90
11540;DHT22;5826;54.756;9.192;2023-04-24T11:18:39;12.30;99.90
11540;DHT22;5826;54.756;9.192;2023-04-24T11:21:12;12.20;99.90
11540;DHT22;5826;54.756;9.192;2023-04-24T11:23:38;12.10;99.90
11540;DHT22;5826;54.756;9.192;2023-04-24T11:26:21;12.10;99.90
11540;DHT22;5826;54.756;9.192;2023-04-24T11:28:49;12.10;99.90
11540;DHT22;5826;54.756;9.192;2023-04-24T11:31:33;12.20;99.90
11540;DHT22;5826;54.756;9.192;2023-04-24T11:34:06;12.30;99.90
11540;DHT22;5826;54.756;9.192;2023-04-24T11:36:32;12.50;99.90
11540;DHT22;5826;54.756;9.192;2023-04-24T11:38:58;12.90;99.90
11540;DHT22;5826;54.756;9.192;2023-04-24T11:41:24;13.10;99.90
11540;DHT22;5826;54.756;9.192;2023-04-24T11:43:51;13.50;99.90
11540;DHT22;5826;54.756;9.192;2023-04-24T11:46:17;13.60;99.90
11540;DHT22;5826;54.756;9.192;2023-04-24T11:48:46;13.50;99.90
11540;DHT22;5826;54.756;9.192;2023-04-24T11:51:15;13.40;99.90
11540;DHT22;5826;54.756;9.192;2023-04-24T11:53:40;13.30;99.90
11540;DHT22;5826;54.756;9.192;2023-04-24T11:56:06;13.20;99.90
11540;DHT22;5826;54.756;9.192;2023-04-24T11:58:38;13.10;99.90
11540;DHT22;5826;54.756;9.192;2023-04-24T12:01:04;13.00;99.90
11540;DHT22;5826;54.756;9.192;2023-04-24T12:03:30;12.90;99.90
11540;DHT22;5826;54.756;9.192;2023-04-24T12:06:09;12.80;99.90
11540;DHT22;5826;54.756;9.192;2023-04-24T12:08:34;12.80;99.90
11540;DHT22;5826;54.756;9.192;2023-04-24T12:11:01;12.70;99.90
11540;DHT22;5826;54.756;9.192;2023-04-24T12:13:27;12.70;99.90
11540;DHT22;5826;54.756;9.192;2023-04-24T12:15:53;12.60;99.90
11540;DHT22;5826;54.756;9.192;2023-04-24T12:18:18;12.50;99.90
11540;DHT22;5826;54.756;9.192;2023-04-24T12:20:47;12.50;99.90
11540;DHT22;5826;54.756;9.192;2023-04-24T12:23:12;12.50;99.90
11540;DHT22;5826;54.756;9.192;2023-04-24T12:25:38;12.40;99.90
11540;DHT22;5826;54.756;9.192;2023-04-24T12:30:35;12.50;99.90
11540;DHT22;5826;54.756;9.192;2023-04-24T12:33:02;12.40;99.90
11540;DHT22;5826;54.756;9.192;2023-04-24T12:35:30;12.20;99.90
11540;DHT22;5826;54.756;9.192;2023-04-24T12:38:08;12.20;99.90
11540;DHT22;5826;54.756;9.192;2023-04-24T12:40:34;12.10;99.90
11540;DHT22;5826;54.756;9.192;2023-04-24T12:42:59;12.10;99.90
11540;DHT22;5826;54.756;9.192;2023-04-24T12:45:25;12.00;99.90
11540;DHT22;5826;54.756;9.192;2023-04-24T12:47:53;12.00;99.90
11540;DHT22;5826;54.756;9.192;2023-04-24T12:50:18;12.00;99.90
11540;DHT22;5826;54.756;9.192;2023-04-24T12:52:44;12.10;99.90
11540;DHT22;5826;54.756;9.192;2023-04-24T12:55:10;12.10;99.90
11540;DHT22;5826;54.756;9.192;2023-04-24T12:57:38;12.30;99.90
11540;DHT22;5826;54.756;9.192;2023-04-24T13:00:05;12.40;99.90
11540;DHT22;5826;54.756;9.192;2023-04-24T13:02:31;12.40;99.90
11540;DHT22;5826;54.756;9.192;2023-04-24T13:04:58;12.60;99.90
11540;DHT22;5826;54.756;9.192;2023-04-24T13:07:24;12.60;99.90
11540;DHT22;5826;54.756;9.192;2023-04-24T13:09:50;12.60;99.90
11540;DHT22;5826;54.756;9.192;2023-04-24T13:12:16;12.60;99.90
11540;DHT22;5826;54.756;9.192;2023-04-24T13:14:42;12.70;99.90
11540;DHT22;5826;54.756;9.192;2023-04-24T13:17:08;12.90;99.90
11540;DHT22;5826;54.756;9.192;2023-04-24T13:19:41;13.00;99.90
11540;DHT22;5826;54.756;9.192;2023-04-24T13:22:09;13.10;99.90
11540;DHT22;5826;54.756;9.192;2023-04-24T13:24:35;13.00;99.90
11540;DHT22;5826;54.756;9.192;2023-04-24T13:27:01;13.00;99.90
11540;DHT22;5826;54.756;9.192;2023-04-24T13:29:27;12.90;99.90
11540;DHT22;5826;54.756;9.192;2023-04-24T13:31:54;12.90;99.90
11540;DHT22;5826;54.756;9.192;2023-04-24T13:34:24;12.90;99.90
11540;DHT22;5826;54.756;9.192;2023-04-24T13:36:51;13.00;99.90
11540;DHT22;5826;54.756;9.192;2023-04-24T13:39:16;12.90;99.90
11540;DHT22;5826;54.756;9.192;2023-04-24T13:41:42;13.00;99.90
11540;DHT22;5826;54.756;9.192;2023-04-24T13:44:08;13.10;99.90
11540;DHT22;5826;54.756;9.192;2023-04-24T13:46:34;13.40;99.90
11540;DHT22;5826;54.756;9.192;2023-04-24T13:49:00;13.10;99.90
11540;DHT22;5826;54.756;9.192;2023-04-24T13:51:26;13.10;99.90
11540;DHT22;5826;54.756;9.192;2023-04-24T13:53:54;13.10;99.90
11540;DHT22;5826;54.756;9.192;2023-04-24T13:56:20;12.90;99.90
11540;DHT22;5826;54.756;9.192;2023-04-24T13:58:46;12.90;99.90
11540;DHT22;5826;54.756;9.192;2023-04-24T14:01:12;12.80;99.90
11540;DHT22;5826;54.756;9.192;2023-04-24T14:03:38;12.80;99.90
11540;DHT22;5826;54.756;9.192;2023-04-24T14:06:04;12.70;99.90
11540;DHT22;5826;54.756;9.192;2023-04-24T14:08:29;12.70;99.90
11540;DHT22;5826;54.756;9.192;2023-04-24T14:10:55;12.70;99.90
11540;DHT22;5826;54.756;9.192;2023-04-24T14:13:21;12.80;99.90
11540;DHT22;5826;54.756;9.192;2023-04-24T14:15:46;12.70;99.90
11540;DHT22;5826;54.756;9.192;2023-04-24T14:18:12;12.70;99.90
11540;DHT22;5826;54.756;9.192;2023-04-24T14:20:37;12.60;99.90
11540;DHT22;5826;54.756;9.192;2023-04-24T14:23:03;12.60;99.90
11540;DHT22;5826;54.756;9.192;2023-04-24T14:25:29;12.50;99.90
11540;DHT22;5826;54.756;9.192;2023-04-24T14:27:55;12.50;99.90
11540;DHT22;5826;54.756;9.192;2023-04-24T14:30:21;12.40;99.90
11540;DHT22;5826;54.756;9.192;2023-04-24T14:32:46;12.50;99.90
11540;DHT22;5826;54.756;9.192;2023-04-24T14:35:12;12.50;99.90
11540;DHT22;5826;54.756;9.192;2023-04-24T14:37:38;12.50;99.90
11540;DHT22;5826;54.756;9.192;2023-04-24T14:40:07;12.50;99.90
11540;DHT22;5826;54.756;9.192;2023-04-24T14:42:33;12.50;99.90
11540;DHT22;5826;54.756;9.192;2023-04-24T14:44:59;12.50;99.90
11540;DHT22;5826;54.756;9.192;2023-04-24T14:47:25;12.50;99.90
11540;DHT22;5826;54.756;9.192;2023-04-24T14:49:51;12.50;99.90
11540;DHT22;5826;54.756;9.192;2023-04-24T14:52:16;12.40;99.90
11540;DHT22;5826;54.756;9.192;2023-04-24T14:54:42;12.40;99.90
11540;DHT22;5826;54.756;9.192;2023-04-24T14:57:08;12.30;99.90
11540;DHT22;5826;54.756;9.192;2023-04-24T14:59:34;12.30;99.90
11540;DHT22;5826;54.756;9.192;2023-04-24T15:02:00;12.30;99.90
11540;DHT22;5826;54.756;9.192;2023-04-24T15:04:25;12.30;99.90
11540;DHT22;5826;54.756;9.192;2023-04-24T15:06:52;12.30;99.90
11540;DHT22;5826;54.756;9.192;2023-04-24T15:09:21;12.30;99.90
11540;DHT22;5826;54.756;9.192;2023-04-24T15:11:47;12.30;99.90
11540;DHT22;5826;54.756;9.192;2023-04-24T15:14:13;12.30;99.90
11540;DHT22;5826;54.756;9.192;2023-04-24T15:16:38;12.20;99.90
11540;DHT22;5826;54.756;9.192;2023-04-24T15:19:04;12.20;99.90
11540;DHT22;5826;54.756;9.192;2023-04-24T15:21:29;12.20;99.90
11540;DHT22;5826;54.756;9.192;2023-04-24T15:23:55;12.10;99.90
11540;DHT22;5826;54.756;9.192;2023-04-24T15:26:22;12.10;99.90
11540;DHT22;5826;54.756;9.192;2023-04-24T15:28:47;12.10;99.90
11540;DHT22;5826;54.756;9.192;2023-04-24T15:31:13;12.00;99.90
11540;DHT22;5826;54.756;9.192;2023-04-24T15:33:38;12.00;99.90
11540;DHT22;5826;54.756;9.192;2023-04-24T15:36:04;11.90;99.90
11540;DHT22;5826;54.756;9.192;2023-04-24T15:38:30;11.90;99.90
11540;DHT22;5826;54.756;9.192;2023-04-24T15:40:56;11.90;99.90
11540;DHT22;5826;54.756;9.192;2023-04-24T15:43:21;11.80;99.90
11540;DHT22;5826;54.756;9.192;2023-04-24T15:45:49;11.70;99.90
11540;DHT22;5826;54.756;9.192;2023-04-24T15:48:15;11.70;99.90